sensor_id;sensor_type;location;lat;lon;timestamp;pressure;altitude;pressure_sealevel;temperature;humidity
42761;BME280;31672;47.638;19.026;2023-01-08T00:04:15;100380.19;;;4.89;100.00
42761;BME280;31672;47.638;19.026;2023-01-08T00:09:21;100379.34;;;4.88;100.00
42761;BME280;31672;47.638;19.026;2023-01-08T00:14:24;100381.00;;;4.89;100.00
42761;BME280;31672;47.638;19.026;2023-01-08T00:19:27;100365.91;;;4.91;100.00
42761;BME280;31672;47.638;19.026;2023-01-08T00:24:30;100376.06;;;4.96;100.00
42761;BME280;31672;47.638;19.026;2023-01-08T00:29:33;100365.53;;;4.96;100.00
42761;BME280;31672;47.638;19.026;2023-01-08T00:34:36;100343.03;;;4.92;100.00
42761;BME280;31672;47.638;19.026;2023-01-08T00:39:39;100354.44;;;4.92;100.00
42761;BME280;31672;47.638;19.026;2023-01-08T00:44:42;100345.44;;;4.95;100.00
42761;BME280;31672;47.638;19.026;2023-01-08T00:49:46;100351.41;;;4.97;100.00
42761;BME280;31672;47.638;19.026;2023-01-08T00:54:49;100359.19;;;4.98;100.00
42761;BME280;31672;47.638;19.026;2023-01-08T00:59:52;100366.13;;;4.99;100.00
42761;BME280;31672;47.638;19.026;2023-01-08T01:04:55;100358.22;;;4.99;100.00
42761;BME280;31672;47.638;19.026;2023-01-08T01:09:57;100358.38;;;4.98;100.00
42761;BME280;31672;47.638;19.026;2023-01-08T01:15:00;100353.94;;;4.98;100.00
42761;BME280;31672;47.638;19.026;2023-01-08T01:20:06;100351.28;;;4.98;100.00
42761;BME280;31672;47.638;19.026;2023-01-08T01:25:09;100351.28;;;4.98;100.00
42761;BME280;31672;47.638;19.026;2023-01-08T01:30:13;100338.13;;;4.98;100.00
42761;BME280;31672;47.638;19.026;2023-01-08T01:35:15;100346.28;;;4.95;100.00
42761;BME280;31672;47.638;19.026;2023-01-08T01:40:18;100333.09;;;4.95;100.00
42761;BME280;31672;47.638;19.026;2023-01-08T01:45:25;100322.31;;;4.98;100.00
42761;BME280;31672;47.638;19.026;2023-01-08T01:50:41;100318.00;;;4.97;100.00
42761;BME280;31672;47.638;19.026;2023-01-08T01:55:47;100308.19;;;4.99;100.00
42761;BME280;31672;47.638;19.026;2023-01-08T02:00:52;100299.44;;;4.99;100.00
42761;BME280;31672;47.638;19.026;2023-01-08T02:11:59;100292.63;;;4.96;100.00
42761;BME280;31672;47.638;19.026;2023-01-08T02:28:13;100274.34;;;4.95;100.00
42761;BME280;31672;47.638;19.026;2023-01-08T02:33:17;100266.28;;;4.96;100.00
42761;BME280;31672;47.638;19.026;2023-01-08T02:38:21;100268.22;;;4.94;100.00
42761;BME280;31672;47.638;19.026;2023-01-08T02:43:44;100273.94;;;4.99;100.00
42761;BME280;31672;47.638;19.026;2023-01-08T02:48:56;100265.06;;;5.00;100.00
42761;BME280;31672;47.638;19.026;2023-01-08T02:54:10;100276.19;;;5.04;100.00
42761;BME280;31672;47.638;19.026;2023-01-08T02:59:15;100259.44;;;5.05;100.00
42761;BME280;31672;47.638;19.026;2023-01-08T03:04:22;100252.34;;;5.05;100.00
42761;BME280;31672;47.638;19.026;2023-01-08T03:09:26;100254.72;;;5.08;100.00
42761;BME280;31672;47.638;19.026;2023-01-08T03:14:59;100244.19;;;5.08;100.00
42761;BME280;31672;47.638;19.026;2023-01-08T03:20:11;100243.34;;;5.08;100.00
42761;BME280;31672;47.638;19.026;2023-01-08T03:25:17;100239.75;;;5.09;100.00
42761;BME280;31672;47.638;19.026;2023-01-08T03:30:22;100232.81;;;5.08;100.00
42761;BME280;31672;47.638;19.026;2023-01-08T03:35:27;100224.75;;;5.09;100.00
42761;BME280;31672;47.638;19.026;2023-01-08T03:40:42;100217.59;;;5.12;100.00
42761;BME280;31672;47.638;19.026;2023-01-08T03:45:57;100219.25;;;5.13;100.00
42761;BME280;31672;47.638;19.026;2023-01-08T03:51:01;100218.41;;;5.12;100.00
42761;BME280;31672;47.638;19.026;2023-01-08T03:56:04;100227.84;;;5.15;100.00
42761;BME280;31672;47.638;19.026;2023-01-08T04:01:07;100218.13;;;5.15;100.00
42761;BME280;31672;47.638;19.026;2023-01-08T04:06:10;100206.09;;;5.13;100.00
42761;BME280;31672;47.638;19.026;2023-01-08T04:11:13;100206.91;;;5.13;100.00
42761;BME280;31672;47.638;19.026;2023-01-08T04:16:16;100206.78;;;5.15;100.00
42761;BME280;31672;47.638;19.026;2023-01-08T04:21:19;100208.44;;;5.16;100.00
42761;BME280;31672;47.638;19.026;2023-01-08T04:26:22;100200.66;;;5.14;100.00
42761;BME280;31672;47.638;19.026;2023-01-08T04:31:25;100210.97;;;5.17;100.00
42761;BME280;31672;47.638;19.026;2023-01-08T04:36:29;100207.50;;;5.17;100.00
42761;BME280;31672;47.638;19.026;2023-01-08T04:41:32;100210.25;;;5.15;100.00
42761;BME280;31672;47.638;19.026;2023-01-08T04:46:35;100208.03;;;5.10;100.00
42761;BME280;31672;47.638;19.026;2023-01-08T04:51:38;100219.25;;;5.13;100.00
42761;BME280;31672;47.638;19.026;2023-01-08T04:56:42;100218.56;;;5.10;100.00
42761;BME280;31672;47.638;19.026;2023-01-08T05:01:45;100214.94;;;5.12;100.00
42761;BME280;31672;47.638;19.026;2023-01-08T05:06:48;100206.91;;;5.13;100.00
42761;BME280;31672;47.638;19.026;2023-01-08T05:11:51;100207.06;;;5.12;100.00
42761;BME280;31672;47.638;19.026;2023-01-08T05:16:54;100198.03;;;5.14;100.00
42761;BME280;31672;47.638;19.026;2023-01-08T05:21:57;100198.88;;;5.15;100.00
42761;BME280;31672;47.638;19.026;2023-01-08T05:27:00;100182.38;;;5.13;100.00
42761;BME280;31672;47.638;19.026;2023-01-08T05:32:06;100200.66;;;5.14;100.00
42761;BME280;31672;47.638;19.026;2023-01-08T05:37:15;100183.34;;;5.12;100.00
42761;BME280;31672;47.638;19.026;2023-01-08T05:42:18;100185.16;;;5.11;100.00
42761;BME280;31672;47.638;19.026;2023-01-08T05:47:21;100181.53;;;5.12;100.00
42761;BME280;31672;47.638;19.026;2023-01-08T05:52:25;100182.50;;;5.11;100.00
42761;BME280;31672;47.638;19.026;2023-01-08T05:57:28;100172.09;;;5.09;100.00
42761;BME280;31672;47.638;19.026;2023-01-08T06:02:31;100172.81;;;5.12;100.00
42761;BME280;31672;47.638;19.026;2023-01-08T06:07:34;100172.94;;;5.10;100.00
42761;BME280;31672;47.638;19.026;2023-01-08T06:12:37;100166.81;;;5.09;100.00
42761;BME280;31672;47.638;19.026;2023-01-08T06:17:40;100158.22;;;5.07;100.00
42761;BME280;31672;47.638;19.026;2023-01-08T06:22:44;100159.06;;;5.08;100.00
42761;BME280;31672;47.638;19.026;2023-01-08T06:27:51;100153.78;;;5.08;100.00
42761;BME280;31672;47.638;19.026;2023-01-08T06:32:58;100155.59;;;5.07;100.00
42761;BME280;31672;47.638;19.026;2023-01-08T06:38:02;100153.78;;;5.08;100.00
42761;BME280;31672;47.638;19.026;2023-01-08T06:43:05;100164.47;;;5.06;100.00
42761;BME280;31672;47.638;19.026;2023-01-08T06:48:08;100156.81;;;5.03;100.00
42761;BME280;31672;47.638;19.026;2023-01-08T06:53:11;100156.72;;;5.05;100.00
42761;BME280;31672;47.638;19.026;2023-01-08T06:58:15;100160.31;;;5.04;100.00
42761;BME280;31672;47.638;19.026;2023-01-08T07:03:18;100148.22;;;5.01;100.00
42761;BME280;31672;47.638;19.026;2023-01-08T07:08:22;100162.09;;;5.03;100.00
42761;BME280;31672;47.638;19.026;2023-01-08T07:13:25;100162.81;;;5.05;100.00
42761;BME280;31672;47.638;19.026;2023-01-08T07:18:28;100157.69;;;5.04;100.00
42761;BME280;31672;47.638;19.026;2023-01-08T07:23:33;100146.28;;;5.03;100.00
42761;BME280;31672;47.638;19.026;2023-01-08T07:28:36;100154.06;;;5.05;100.00
42761;BME280;31672;47.638;19.026;2023-01-08T07:33:39;100145.06;;;5.07;100.00
42761;BME280;31672;47.638;19.026;2023-01-08T07:38:42;100154.50;;;5.10;100.00
42761;BME280;31672;47.638;19.026;2023-01-08T07:43:47;100152.56;;;5.12;100.00
42761;BME280;31672;47.638;19.026;2023-01-08T07:48:50;100159.34;;;5.15;100.00
42761;BME280;31672;47.638;19.026;2023-01-08T07:53:53;100147.97;;;5.14;100.00
42761;BME280;31672;47.638;19.026;2023-01-08T07:58:58;100145.22;;;5.16;100.00
42761;BME280;31672;47.638;19.026;2023-01-08T08:04:01;100145.34;;;5.14;100.00
42761;BME280;31672;47.638;19.026;2023-01-08T08:09:03;100133.00;;;5.15;100.00
42761;BME280;31672;47.638;19.026;2023-01-08T08:14:07;100129.69;;;5.13;100.00
42761;BME280;31672;47.638;19.026;2023-01-08T08:19:10;100127.63;;;5.16;100.00
42761;BME280;31672;47.638;19.026;2023-01-08T08:24:14;100122.22;;;5.18;100.00
42761;BME280;31672;47.638;19.026;2023-01-08T08:29:17;100109.75;;;5.20;100.00
42761;BME280;31672;47.638;19.026;2023-01-08T08:34:20;100111.28;;;5.22;100.00
42761;BME280;31672;47.638;19.026;2023-01-08T08:39:24;100105.03;;;5.23;100.00
42761;BME280;31672;47.638;19.026;2023-01-08T08:44:27;100102.94;;;5.27;100.00
42761;BME280;31672;47.638;19.026;2023-01-08T08:49:30;100097.28;;;5.22;100.00
42761;BME280;31672;47.638;19.026;2023-01-08T08:54:32;100101.16;;;5.27;100.00
42761;BME280;31672;47.638;19.026;2023-01-08T08:59:36;100093.13;;;5.29;100.00
42761;BME280;31672;47.638;19.026;2023-01-08T09:04:39;100108.50;;;5.33;100.00
42761;BME280;31672;47.638;19.026;2023-01-08T09:09:42;100103.13;;;5.35;100.00
42761;BME280;31672;47.638;19.026;2023-01-08T09:14:45;100102.00;;;5.37;100.00
42761;BME280;31672;47.638;19.026;2023-01-08T09:19:48;100095.34;;;5.43;100.00
42761;BME280;31672;47.638;19.026;2023-01-08T09:24:51;100081.19;;;5.44;100.00
42761;BME280;31672;47.638;19.026;2023-01-08T09:29:54;100072.88;;;5.49;100.00
42761;BME280;31672;47.638;19.026;2023-01-08T09:34:57;100069.00;;;5.53;100.00
42761;BME280;31672;47.638;19.026;2023-01-08T09:39:59;100064.00;;;5.59;100.00
42761;BME280;31672;47.638;19.026;2023-01-08T09:45:07;100065.38;;;5.63;100.00
42761;BME280;31672;47.638;19.026;2023-01-08T09:50:14;100056.81;;;5.71;100.00
42761;BME280;31672;47.638;19.026;2023-01-08T09:55:17;100044.03;;;5.76;100.00
42761;BME280;31672;47.638;19.026;2023-01-08T10:00:28;100023.63;;;5.88;100.00
42761;BME280;31672;47.638;19.026;2023-01-08T10:05:31;100018.19;;;5.99;100.00
42761;BME280;31672;47.638;19.026;2023-01-08T10:10:35;100012.22;;;6.07;100.00
42761;BME280;31672;47.638;19.026;2023-01-08T10:15:39;100006.88;;;6.16;100.00
42761;BME280;31672;47.638;19.026;2023-01-08T10:20:42;99996.22;;;6.18;100.00
42761;BME280;31672;47.638;19.026;2023-01-08T10:31:13;99979.53;;;6.17;100.00
42761;BME280;31672;47.638;19.026;2023-01-08T10:36:22;99966.19;;;6.19;100.00
42761;BME280;31672;47.638;19.026;2023-01-08T10:41:26;99965.97;;;6.12;100.00
42761;BME280;31672;47.638;19.026;2023-01-08T10:46:47;99965.97;;;6.12;100.00
42761;BME280;31672;47.638;19.026;2023-01-08T10:51:52;99965.22;;;6.20;100.00
42761;BME280;31672;47.638;19.026;2023-01-08T10:56:56;99956.56;;;6.28;100.00
42761;BME280;31672;47.638;19.026;2023-01-08T11:02:02;99953.59;;;6.40;100.00
42761;BME280;31672;47.638;19.026;2023-01-08T11:07:06;99935.16;;;6.58;100.00
42761;BME280;31672;47.638;19.026;2023-01-08T11:17:37;99905.44;;;7.10;100.00
42761;BME280;31672;47.638;19.026;2023-01-08T11:22:40;99895.13;;;7.24;100.00
42761;BME280;31672;47.638;19.026;2023-01-08T11:27:44;99893.44;;;7.41;100.00
42761;BME280;31672;47.638;19.026;2023-01-08T11:32:56;99885.44;;;7.51;100.00
42761;BME280;31672;47.638;19.026;2023-01-08T11:38:06;99869.19;;;7.46;99.23
42761;BME280;31672;47.638;19.026;2023-01-08T11:43:27;99862.75;;;7.48;98.64
42761;BME280;31672;47.638;19.026;2023-01-08T11:54:28;99850.44;;;7.57;97.06
42761;BME280;31672;47.638;19.026;2023-01-08T12:05:33;99839.50;;;7.52;95.66
42761;BME280;31672;47.638;19.026;2023-01-08T12:17:31;99832.91;;;7.56;95.24
42761;BME280;31672;47.638;19.026;2023-01-08T12:34:08;99831.94;;;7.65;93.97
42761;BME280;31672;47.638;19.026;2023-01-08T12:39:22;99836.25;;;7.66;93.77
42761;BME280;31672;47.638;19.026;2023-01-08T12:44:28;99836.56;;;7.63;93.37
42761;BME280;31672;47.638;19.026;2023-01-08T12:49:40;99825.06;;;7.46;92.27
42761;BME280;31672;47.638;19.026;2023-01-08T13:00:03;99838.84;;;7.06;93.20
42761;BME280;31672;47.638;19.026;2023-01-08T13:10:38;99816.88;;;6.80;93.98
42761;BME280;31672;47.638;19.026;2023-01-08T13:15:42;99812.81;;;6.67;94.37
42761;BME280;31672;47.638;19.026;2023-01-08T13:20:56;99833.16;;;6.57;94.68
42761;BME280;31672;47.638;19.026;2023-01-08T13:26:03;99813.41;;;6.43;94.73
42761;BME280;31672;47.638;19.026;2023-01-08T13:36:26;99825.06;;;6.23;95.62
42761;BME280;31672;47.638;19.026;2023-01-08T13:41:41;99818.88;;;6.14;96.09
42761;BME280;31672;47.638;19.026;2023-01-08T13:47:05;99814.22;;;6.08;96.53
42761;BME280;31672;47.638;19.026;2023-01-08T13:52:45;99815.91;;;6.00;96.87
42761;BME280;31672;47.638;19.026;2023-01-08T13:58:03;99812.09;;;5.94;97.42
42761;BME280;31672;47.638;19.026;2023-01-08T14:03:33;99823.84;;;5.90;97.83
42761;BME280;31672;47.638;19.026;2023-01-08T14:08:52;99810.56;;;5.92;98.29
42761;BME280;31672;47.638;19.026;2023-01-08T14:14:27;99820.28;;;5.91;98.55
42761;BME280;31672;47.638;19.026;2023-01-08T14:19:30;99819.41;;;5.90;98.80
42761;BME280;31672;47.638;19.026;2023-01-08T14:24:33;99819.41;;;5.90;99.08
42761;BME280;31672;47.638;19.026;2023-01-08T14:29:44;99809.84;;;5.89;99.21
42761;BME280;31672;47.638;19.026;2023-01-08T14:34:49;99811.38;;;5.92;99.54
42761;BME280;31672;47.638;19.026;2023-01-08T14:39:53;99805.41;;;5.90;99.40
42761;BME280;31672;47.638;19.026;2023-01-08T14:50:34;99809.03;;;5.89;99.95
42761;BME280;31672;47.638;19.026;2023-01-08T14:55:44;99790.69;;;5.87;100.00
42761;BME280;31672;47.638;19.026;2023-01-08T15:00:59;99790.56;;;5.89;100.00
42761;BME280;31672;47.638;19.026;2023-01-08T15:06:05;99789.56;;;5.90;100.00
42761;BME280;31672;47.638;19.026;2023-01-08T15:11:22;99797.38;;;5.92;100.00
42761;BME280;31672;47.638;19.026;2023-01-08T15:16:27;99790.00;;;5.95;100.00
42761;BME280;31672;47.638;19.026;2023-01-08T15:21:31;99786.38;;;5.96;100.00
42761;BME280;31672;47.638;19.026;2023-01-08T15:26:40;99791.34;;;5.99;100.00
42761;BME280;31672;47.638;19.026;2023-01-08T15:31:48;99767.09;;;5.96;100.00
42761;BME280;31672;47.638;19.026;2023-01-08T15:36:51;99766.66;;;6.00;100.00
42761;BME280;31672;47.638;19.026;2023-01-08T15:41:54;99765.78;;;6.00;100.00
42761;BME280;31672;47.638;19.026;2023-01-08T15:47:16;99759.56;;;6.01;100.00
42761;BME280;31672;47.638;19.026;2023-01-08T15:52:25;99742.22;;;5.98;100.00
42761;BME280;31672;47.638;19.026;2023-01-08T15:57:31;99748.19;;;6.00;100.00
42761;BME280;31672;47.638;19.026;2023-01-08T16:02:45;99738.31;;;6.02;100.00
42761;BME280;31672;47.638;19.026;2023-01-08T16:07:49;99739.28;;;6.01;100.00
42761;BME280;31672;47.638;19.026;2023-01-08T16:12:53;99739.28;;;6.01;100.00
42761;BME280;31672;47.638;19.026;2023-01-08T16:17:57;99747.19;;;6.01;100.00
42761;BME280;31672;47.638;19.026;2023-01-08T16:23:01;99733.31;;;5.99;100.00
42761;BME280;31672;47.638;19.026;2023-01-08T16:28:04;99729.19;;;5.97;100.00
42761;BME280;31672;47.638;19.026;2023-01-08T16:33:07;99729.72;;;6.00;100.00
42761;BME280;31672;47.638;19.026;2023-01-08T16:38:12;99728.03;;;5.99;100.00
42761;BME280;31672;47.638;19.026;2023-01-08T16:43:15;99714.84;;;5.99;100.00
42761;BME280;31672;47.638;19.026;2023-01-08T16:48:20;99712.22;;;5.99;100.00
42761;BME280;31672;47.638;19.026;2023-01-08T16:53:23;99714.19;;;5.97;100.00
42761;BME280;31672;47.638;19.026;2023-01-08T16:58:27;99707.78;;;6.00;100.00
42761;BME280;31672;47.638;19.026;2023-01-08T17:03:31;99707.78;;;6.00;100.00
42761;BME280;31672;47.638;19.026;2023-01-08T17:08:34;99701.38;;;6.02;100.00
42761;BME280;31672;47.638;19.026;2023-01-08T17:13:42;99700.84;;;5.99;100.00
42761;BME280;31672;47.638;19.026;2023-01-08T17:18:45;99696.25;;;6.01;100.00
42761;BME280;31672;47.638;19.026;2023-01-08T17:23:48;99700.56;;;6.02;100.00
42761;BME280;31672;47.638;19.026;2023-01-08T17:28:53;99694.28;;;6.03;100.00
42761;BME280;31672;47.638;19.026;2023-01-08T17:33:56;99683.91;;;6.01;100.00
42761;BME280;31672;47.638;19.026;2023-01-08T17:38:59;99685.22;;;6.05;100.00
42761;BME280;31672;47.638;19.026;2023-01-08T17:44:05;99686.09;;;6.06;100.00
42761;BME280;31672;47.638;19.026;2023-01-08T17:49:11;99682.31;;;6.08;100.00
42761;BME280;31672;47.638;19.026;2023-01-08T17:54:15;99669.28;;;6.07;100.00
42761;BME280;31672;47.638;19.026;2023-01-08T17:59:20;99674.09;;;6.11;100.00
42761;BME280;31672;47.638;19.026;2023-01-08T18:04:23;99672.44;;;6.10;100.00
42761;BME280;31672;47.638;19.026;2023-01-08T18:09:26;99677.03;;;6.08;100.00
42761;BME280;31672;47.638;19.026;2023-01-08T18:14:29;99675.38;;;6.07;100.00
42761;BME280;31672;47.638;19.026;2023-01-08T18:19:32;99674.09;;;6.11;100.00
42761;BME280;31672;47.638;19.026;2023-01-08T18:24:36;99669.28;;;6.07;100.00
42761;BME280;31672;47.638;19.026;2023-01-08T18:29:39;99672.44;;;6.10;100.00
42761;BME280;31672;47.638;19.026;2023-01-08T18:34:43;99674.78;;;6.13;100.00
42761;BME280;31672;47.638;19.026;2023-01-08T18:39:46;99677.91;;;6.17;100.00
42761;BME280;31672;47.638;19.026;2023-01-08T18:44:51;99669.88;;;6.19;100.00
42761;BME280;31672;47.638;19.026;2023-01-08T18:49:56;99673.47;;;6.17;100.00
42761;BME280;31672;47.638;19.026;2023-01-08T18:55:05;99672.50;;;6.19;100.00
42761;BME280;31672;47.638;19.026;2023-01-08T19:00:10;99668.50;;;6.14;100.00
42761;BME280;31672;47.638;19.026;2023-01-08T19:05:14;99665.88;;;6.14;100.00
42761;BME280;31672;47.638;19.026;2023-01-08T19:10:17;99667.84;;;6.12;100.00
42761;BME280;31672;47.638;19.026;2023-01-08T19:15:20;99668.81;;;6.11;100.00
42761;BME280;31672;47.638;19.026;2023-01-08T19:20:23;99663.69;;;6.10;100.00
42761;BME280;31672;47.638;19.026;2023-01-08T19:25:26;99660.06;;;6.11;100.00
42761;BME280;31672;47.638;19.026;2023-01-08T19:30:30;99652.97;;;6.11;100.00
42761;BME280;31672;47.638;19.026;2023-01-08T19:35:40;99648.03;;;6.08;100.00
42761;BME280;31672;47.638;19.026;2023-01-08T19:40:43;99642.44;;;6.11;100.00
42761;BME280;31672;47.638;19.026;2023-01-08T19:45:46;99646.03;;;6.10;100.00
42761;BME280;31672;47.638;19.026;2023-01-08T19:50:49;99641.75;;;6.09;100.00
42761;BME280;31672;47.638;19.026;2023-01-08T19:55:52;99635.66;;;6.09;100.00
42761;BME280;31672;47.638;19.026;2023-01-08T20:00:55;99630.69;;;6.06;100.00
42761;BME280;31672;47.638;19.026;2023-01-08T20:05:58;99632.66;;;6.04;100.00
42761;BME280;31672;47.638;19.026;2023-01-08T20:11:10;99642.53;;;6.02;100.00
42761;BME280;31672;47.638;19.026;2023-01-08T20:16:17;99619.78;;;6.01;100.00
42761;BME280;31672;47.638;19.026;2023-01-08T20:21:21;99616.44;;;5.99;100.00
42761;BME280;31672;47.638;19.026;2023-01-08T20:26:28;99627.53;;;6.02;100.00
42761;BME280;31672;47.638;19.026;2023-01-08T20:31:31;99623.69;;;5.97;100.00
42761;BME280;31672;47.638;19.026;2023-01-08T20:36:36;99620.06;;;5.98;100.00
42761;BME280;31672;47.638;19.026;2023-01-08T20:41:39;99611.31;;;5.97;100.00
42761;BME280;31672;47.638;19.026;2023-01-08T20:46:57;99605.38;;;5.95;100.00
42761;BME280;31672;47.638;19.026;2023-01-08T20:52:00;99601.53;;;5.89;100.00
42761;BME280;31672;47.638;19.026;2023-01-08T20:57:04;99599.88;;;5.88;100.00
42761;BME280;31672;47.638;19.026;2023-01-08T21:02:08;99595.72;;;5.86;100.00
42761;BME280;31672;47.638;19.026;2023-01-08T21:07:12;99583.28;;;5.78;100.00
42761;BME280;31672;47.638;19.026;2023-01-08T21:12:15;99590.00;;;5.73;100.00
42761;BME280;31672;47.638;19.026;2023-01-08T21:17:19;99593.84;;;5.60;100.00
42761;BME280;31672;47.638;19.026;2023-01-08T21:22:22;99575.22;;;5.44;100.00
42761;BME280;31672;47.638;19.026;2023-01-08T21:27:24;99573.41;;;5.27;100.00
42761;BME280;31672;47.638;19.026;2023-01-08T21:32:30;99559.00;;;5.03;100.00
42761;BME280;31672;47.638;19.026;2023-01-08T21:37:33;99569.06;;;4.90;100.00
42761;BME280;31672;47.638;19.026;2023-01-08T21:42:39;99561.50;;;4.77;100.00
42761;BME280;31672;47.638;19.026;2023-01-08T21:48:01;99562.69;;;4.65;100.00
42761;BME280;31672;47.638;19.026;2023-01-08T21:53:05;99553.03;;;4.56;100.00
42761;BME280;31672;47.638;19.026;2023-01-08T21:58:28;99551.56;;;4.44;100.00
42761;BME280;31672;47.638;19.026;2023-01-08T22:03:32;99552.25;;;4.36;100.00
42761;BME280;31672;47.638;19.026;2023-01-08T22:08:35;99543.16;;;4.30;100.00
42761;BME280;31672;47.638;19.026;2023-01-08T22:13:39;99551.19;;;4.29;100.00
42761;BME280;31672;47.638;19.026;2023-01-08T22:18:42;99544.84;;;4.22;100.00
42761;BME280;31672;47.638;19.026;2023-01-08T22:23:45;99538.50;;;4.15;100.00
42761;BME280;31672;47.638;19.026;2023-01-08T22:28:48;99540.03;;;4.08;100.00
42761;BME280;31672;47.638;19.026;2023-01-08T22:33:56;99535.78;;;3.97;100.00
42761;BME280;31672;47.638;19.026;2023-01-08T22:38:59;99522.94;;;3.84;100.00
42761;BME280;31672;47.638;19.026;2023-01-08T22:44:03;99526.41;;;3.75;100.00
42761;BME280;31672;47.638;19.026;2023-01-08T22:49:06;99513.69;;;3.70;100.00
42761;BME280;31672;47.638;19.026;2023-01-08T22:54:12;99514.81;;;3.68;100.00
42761;BME280;31672;47.638;19.026;2023-01-08T22:59:15;99502.63;;;3.67;100.00
42761;BME280;31672;47.638;19.026;2023-01-08T23:04:17;99496.41;;;3.68;100.00
42761;BME280;31672;47.638;19.026;2023-01-08T23:09:20;99478.16;;;3.66;100.00
42761;BME280;31672;47.638;19.026;2023-01-08T23:14:23;99480.34;;;3.71;100.00
42761;BME280;31672;47.638;19.026;2023-01-08T23:19:27;99479.09;;;3.65;100.00
42761;BME280;31672;47.638;19.026;2023-01-08T23:24:30;99481.06;;;3.63;100.00
42761;BME280;31672;47.638;19.026;2023-01-08T23:29:33;99472.63;;;3.60;100.00
42761;BME280;31672;47.638;19.026;2023-01-08T23:34:36;99468.63;;;3.56;100.00
42761;BME280;31672;47.638;19.026;2023-01-08T23:39:39;99468.63;;;3.46;100.00
42761;BME280;31672;47.638;19.026;2023-01-08T23:44:42;99468.09;;;3.42;100.00
42761;BME280;31672;47.638;19.026;2023-01-08T23:49:45;99465.75;;;3.39;100.00
42761;BME280;31672;47.638;19.026;2023-01-08T23:54:48;99463.13;;;3.39;100.00
42761;BME280;31672;47.638;19.026;2023-01-08T23:59:54;99457.31;;;3.36;100.00
